sensor_id;sensor_type;location;lat;lon;timestamp;pressure;altitude;pressure_sealevel;temperature;humidity
46382;BME280;66809;52.974;-2.514;2023-03-01T00:01:43;1028.5222581992716;;;4.953459677095915;39.158473547896556
46382;BME280;66809;52.974;-2.514;2023-03-01T00:03:43;1028.5243920846135;;;4.972354850301105;39.17270113753025
46382;BME280;66809;52.974;-2.514;2023-03-01T00:05:44;1028.5261302716451;;;4.987340856783438;39.1810094283744
46382;BME280;66809;52.974;-2.514;2023-03-01T00:07:44;1028.527246999472;;;5.002523063148474;39.19106912243674
46382;BME280;66809;52.974;-2.514;2023-03-01T00:09:44;1028.5283733249692;;;5.02656713817879;39.194250189702935
46382;BME280;66809;52.974;-2.514;2023-03-01T00:11:44;1028.5283747970923;;;5.058259643154264;39.192488734543744
46382;BME280;66809;52.974;-2.514;2023-03-01T00:13:44;1028.5283125633441;;;5.083194292373485;39.19354032799274
46382;BME280;66809;52.974;-2.514;2023-03-01T00:15:43;1028.5276832798434;;;5.095315295766781;39.21087481645107
46382;BME280;66809;52.974;-2.514;2023-03-01T00:17:43;1028.5276820065044;;;5.114998921920529;39.22297970142509
46382;BME280;66809;52.974;-2.514;2023-03-01T00:19:44;1028.529874036418;;;5.134295525797303;39.24903281408676
46382;BME280;66809;52.974;-2.514;2023-03-01T00:21:43;1028.5315399875578;;;5.14857099709305;39.28854529353854
46382;BME280;66809;52.974;-2.514;2023-03-01T00:23:43;1028.5347797609531;;;5.141361781330232;39.33289861665203
46382;BME280;66809;52.974;-2.514;2023-03-01T00:25:44;1028.5364628015054;;;5.150092760570462;39.37221076659934
46382;BME280;66809;52.974;-2.514;2023-03-01T00:27:43;1028.5396275936234;;;5.154552747769574;39.418782424325926
46382;BME280;66809;52.974;-2.514;2023-03-01T00:29:43;1028.5412481829628;;;5.136297263913557;39.47116208334939
46382;BME280;66809;52.974;-2.514;2023-03-01T00:31:44;1028.5423352827572;;;5.1442277821189055;39.523065816343205
46382;BME280;66809;52.974;-2.514;2023-03-01T00:33:43;1028.5422173382424;;;5.135859820404048;39.574501100344335
46382;BME280;66809;52.974;-2.514;2023-03-01T00:35:43;1028.543003903241;;;5.1182657094473845;39.62536591989524
46382;BME280;66809;52.974;-2.514;2023-03-01T00:37:43;1028.5429633942667;;;5.09990704445508;39.68167146233293
46382;BME280;66809;52.974;-2.514;2023-03-01T00:39:44;1028.5421131187597;;;5.0691074234145965;39.732755792844564
46382;BME280;66809;52.974;-2.514;2023-03-01T00:41:43;1028.5414523976024;;;5.047750586896451;39.79354266603286
46382;BME280;66809;52.974;-2.514;2023-03-01T00:43:44;1028.541241667372;;;5.039380803478817;39.85045817909791
46382;BME280;66809;52.974;-2.514;2023-03-01T00:45:44;1028.5396021897493;;;5.036180994375769;39.90243384192661
46382;BME280;66809;52.974;-2.514;2023-03-01T00:47:43;1028.5378062600955;;;5.031922575951115;39.94259284342905
46382;BME280;66809;52.974;-2.514;2023-03-01T00:49:44;1028.534613628432;;;5.031209630005245;39.990029215632596
46382;BME280;66809;52.974;-2.514;2023-03-01T00:51:43;1028.5303034304582;;;5.024858010008588;40.01855714677753
46382;BME280;66809;52.974;-2.514;2023-03-01T00:53:43;1028.5252347838907;;;5.017178934125502;40.051548835114595
46382;BME280;66809;52.974;-2.514;2023-03-01T00:55:43;1028.5178027581005;;;5.009525057522132;40.07688135952354
46382;BME280;66809;52.974;-2.514;2023-03-01T00:57:44;1028.5100638587323;;;5.010724674773505;40.10444130616373
46382;BME280;66809;52.974;-2.514;2023-03-01T00:59:43;1028.5007495776458;;;5.033062128184998;40.10850773002919
46382;BME280;66809;52.974;-2.514;2023-03-01T01:01:43;1028.4894414123603;;;5.048828331428931;40.11393364553666
46382;BME280;66809;52.974;-2.514;2023-03-01T01:03:46;1028.4787554609293;;;5.0641354476412905;40.11548088725226
46382;BME280;66809;52.974;-2.514;2023-03-01T01:05:44;1028.4687556911922;;;5.0673616655921485;40.114798876891186
46382;BME280;66809;52.974;-2.514;2023-03-01T01:07:44;1028.461680950043;;;5.077737644329036;40.103639764192515
46382;BME280;66809;52.974;-2.514;2023-03-01T01:09:43;1028.4556523606198;;;5.088802559631379;40.095970439899325
46382;BME280;66809;52.974;-2.514;2023-03-01T01:11:45;1028.449934803613;;;5.098111543474056;40.08636095119508
46382;BME280;66809;52.974;-2.514;2023-03-01T01:13:46;1028.4431602200118;;;5.1095461320140405;40.07141601017279
46382;BME280;66809;52.974;-2.514;2023-03-01T01:15:43;1028.4366483574336;;;5.13082738687963;40.038631262439544
46382;BME280;66809;52.974;-2.514;2023-03-01T01:17:43;1028.4289766487893;;;5.148396937641855;40.0066206162596
46382;BME280;66809;52.974;-2.514;2023-03-01T01:19:44;1028.4187735754665;;;5.166276140195734;39.96482097493406
46382;BME280;66809;52.974;-2.514;2023-03-01T01:21:43;1028.4084926247187;;;5.1940506053816655;39.90771226380047
46382;BME280;66809;52.974;-2.514;2023-03-01T01:23:44;1028.3963412887927;;;5.2336149067141156;39.84964064666818
46382;BME280;66809;52.974;-2.514;2023-03-01T01:25:43;1028.3849640790954;;;5.259912481855818;39.79031494505566
46382;BME280;66809;52.974;-2.514;2023-03-01T01:27:44;1028.372703422724;;;5.292240592927759;39.721687775136026
46382;BME280;66809;52.974;-2.514;2023-03-01T01:29:43;1028.3624498390595;;;5.331173541741358;39.64715731073253
46382;BME280;66809;52.974;-2.514;2023-03-01T01:31:43;1028.3519289908877;;;5.350336936758599;39.57271964248962
46382;BME280;66809;52.974;-2.514;2023-03-01T01:33:44;1028.3414353738146;;;5.376770128000184;39.50389620188751
46382;BME280;66809;52.974;-2.514;2023-03-01T01:35:45;1028.3301770523562;;;5.405184299388119;39.440497668771414
46382;BME280;66809;52.974;-2.514;2023-03-01T01:37:44;1028.3200170724076;;;5.428918793536627;39.37495944102109
46382;BME280;66809;52.974;-2.514;2023-03-01T01:39:43;1028.3097785209882;;;5.461770213727432;39.321632841829675
46382;BME280;66809;52.974;-2.514;2023-03-01T01:41:43;1028.3000064386008;;;5.487739534745074;39.26636693827199
46382;BME280;66809;52.974;-2.514;2023-03-01T01:43:45;1028.2891979606031;;;5.490637487563459;39.215454294456976
46382;BME280;66809;52.974;-2.514;2023-03-01T01:45:44;1028.2780206419898;;;5.503164274092786;39.16376246644663
46382;BME280;66809;52.974;-2.514;2023-03-01T01:47:44;1028.2657776920037;;;5.503675574511878;39.11817889803853
46382;BME280;66809;52.974;-2.514;2023-03-01T01:49:45;1028.25393931636;;;5.497011907387236;39.07085544121489
46382;BME280;66809;52.974;-2.514;2023-03-01T01:51:45;1028.2430185985872;;;5.492970735625942;39.03672258538446
46382;BME280;66809;52.974;-2.514;2023-03-01T01:53:46;1028.2313306851545;;;5.4907947194767805;38.99725152714352
46382;BME280;66809;52.974;-2.514;2023-03-01T01:55:46;1028.2205612648245;;;5.489047184084795;38.96281757661024
46382;BME280;66809;52.974;-2.514;2023-03-01T01:57:47;1028.209871061859;;;5.48643428161004;38.92682946603093
46382;BME280;66809;52.974;-2.514;2023-03-01T01:59:47;1028.2013140536912;;;5.474245972881274;38.89277209583848
46382;BME280;66809;52.974;-2.514;2023-03-01T02:01:43;1028.1953716465846;;;5.479513787260165;38.851724098054056
46382;BME280;66809;52.974;-2.514;2023-03-01T02:03:44;1028.186183704634;;;5.474725493055553;38.815135804564186
46382;BME280;66809;52.974;-2.514;2023-03-01T02:05:47;1028.1770733992905;;;5.482446581156256;38.77679597223933
46382;BME280;66809;52.974;-2.514;2023-03-01T02:07:44;1028.1634446259823;;;5.490394512463158;38.73855235837485
46382;BME280;66809;52.974;-2.514;2023-03-01T02:09:47;1028.147819970202;;;5.4921690693864225;38.700019005072235
46382;BME280;66809;52.974;-2.514;2023-03-01T02:11:44;1028.1306023168083;;;5.492772804783992;38.66128801550151
46382;BME280;66809;52.974;-2.514;2023-03-01T02:13:44;1028.11395714758;;;5.499124433169908;38.62303945548486
46382;BME280;66809;52.974;-2.514;2023-03-01T02:15:44;1028.0975264950016;;;5.5036949164695965;38.592947556345855
46382;BME280;66809;52.974;-2.514;2023-03-01T02:17:44;1028.079002025513;;;5.511968700013025;38.56276027356001
46382;BME280;66809;52.974;-2.514;2023-03-01T02:19:52;1028.0609394648754;;;5.515102506457344;38.536648285005256
46382;BME280;66809;52.974;-2.514;2023-03-01T02:21:50;1028.041988343763;;;5.519807417709375;38.51557770877217
46382;BME280;66809;52.974;-2.514;2023-03-01T02:23:43;1028.0236040945172;;;5.520604393825645;38.49071765941708
46382;BME280;66809;52.974;-2.514;2023-03-01T02:25:48;1028.0039528950138;;;5.520166330916601;38.46178364455266
46382;BME280;66809;52.974;-2.514;2023-03-01T02:27:49;1027.9846660855587;;;5.520773066357401;38.43673082709074
46382;BME280;66809;52.974;-2.514;2023-03-01T02:29:43;1027.9644078377557;;;5.521531029464831;38.405077485873676
46382;BME280;66809;52.974;-2.514;2023-03-01T02:31:43;1027.9442881909815;;;5.527227328981921;38.37944341761967
46382;BME280;66809;52.974;-2.514;2023-03-01T02:33:44;1027.9234325625998;;;5.52250624860669;38.35031606824829
46382;BME280;66809;52.974;-2.514;2023-03-01T02:35:43;1027.9027350482718;;;5.529731641631868;38.32060401359722
46382;BME280;66809;52.974;-2.514;2023-03-01T02:37:44;1027.881017391952;;;5.530975082096709;38.28576621329568
46382;BME280;66809;52.974;-2.514;2023-03-01T02:39:47;1027.8614562335292;;;5.514457538760719;38.26436731706422
46382;BME280;66809;52.974;-2.514;2023-03-01T02:41:47;1027.8410451603925;;;5.490311358426745;38.2552004688175
46382;BME280;66809;52.974;-2.514;2023-03-01T02:43:43;1027.8205698918232;;;5.457998860152188;38.26058415148596
46382;BME280;66809;52.974;-2.514;2023-03-01T02:45:48;1027.8005920705095;;;5.420595032618744;38.280023157753156
46382;BME280;66809;52.974;-2.514;2023-03-01T02:47:43;1027.7821101111508;;;5.39136539757837;38.31312145214103
46382;BME280;66809;52.974;-2.514;2023-03-01T02:49:43;1027.7643436497417;;;5.3622870067437;38.35570054428406
46382;BME280;66809;52.974;-2.514;2023-03-01T02:51:52;1027.7442012156394;;;5.3340164196150255;38.41066644669527
46382;BME280;66809;52.974;-2.514;2023-03-01T02:53:53;1027.7243153877528;;;5.292665151446906;38.47144390359899
46382;BME280;66809;52.974;-2.514;2023-03-01T02:55:44;1027.7044003264218;;;5.262645233445914;38.53890488587022
46382;BME280;66809;52.974;-2.514;2023-03-01T02:57:45;1027.6849941846524;;;5.22909001669049;38.609087327636935
46382;BME280;66809;52.974;-2.514;2023-03-01T02:59:44;1027.6644805393084;;;5.191063400533917;38.69242527801298
46382;BME280;66809;52.974;-2.514;2023-03-01T03:01:43;1027.6411232418313;;;5.153314008845832;38.775009294672415
46382;BME280;66809;52.974;-2.514;2023-03-01T03:03:43;1027.618605606526;;;5.1127098447165205;38.85285943050671
46382;BME280;66809;52.974;-2.514;2023-03-01T03:05:43;1027.597534929854;;;5.064484237078257;38.93439771737966
46382;BME280;66809;52.974;-2.514;2023-03-01T03:07:46;1027.5789083941802;;;5.024340389120843;39.022418041439565
46382;BME280;66809;52.974;-2.514;2023-03-01T03:09:43;1027.5616631397943;;;4.985893635622917;39.10308474385328
46382;BME280;66809;52.974;-2.514;2023-03-01T03:11:44;1027.5461292695095;;;4.943136888736374;39.191016154314326
46382;BME280;66809;52.974;-2.514;2023-03-01T03:13:43;1027.5311753588803;;;4.8956584841208945;39.29200824623897
46382;BME280;66809;52.974;-2.514;2023-03-01T03:15:43;1027.5158952830361;;;4.844459983453847;39.38939853308843
46382;BME280;66809;52.974;-2.514;2023-03-01T03:17:43;1027.5027303966804;;;4.803299542819081;39.48350991378302
46382;BME280;66809;52.974;-2.514;2023-03-01T03:19:43;1027.4890926197982;;;4.759181756209953;39.57742003207168
46382;BME280;66809;52.974;-2.514;2023-03-01T03:21:44;1027.476569370561;;;4.721155051760904;39.663898780831715
46382;BME280;66809;52.974;-2.514;2023-03-01T03:23:43;1027.464320699181;;;4.669377305469857;39.75019763745138
46382;BME280;66809;52.974;-2.514;2023-03-01T03:25:43;1027.4516988596426;;;4.636677159411188;39.83224874145619
46382;BME280;66809;52.974;-2.514;2023-03-01T03:27:45;1027.4383168237962;;;4.612099538970045;39.91381984116809
46382;BME280;66809;52.974;-2.514;2023-03-01T03:29:43;1027.4229271593322;;;4.583306128874104;39.99889524856679
46382;BME280;66809;52.974;-2.514;2023-03-01T03:31:44;1027.4079142036687;;;4.549397969510076;40.085210580964706
46382;BME280;66809;52.974;-2.514;2023-03-01T03:33:43;1027.3934242101477;;;4.51459085212156;40.17491620517724
46382;BME280;66809;52.974;-2.514;2023-03-01T03:35:45;1027.378858083226;;;4.476246686387793;40.27061705516157
46382;BME280;66809;52.974;-2.514;2023-03-01T03:37:44;1027.365814135849;;;4.438925826966299;40.388363547312096
46382;BME280;66809;52.974;-2.514;2023-03-01T03:39:43;1027.35071626267;;;4.412846862265294;40.48909008754092
46382;BME280;66809;52.974;-2.514;2023-03-01T03:41:44;1027.335450387612;;;4.401925541988268;40.578073043599666
46382;BME280;66809;52.974;-2.514;2023-03-01T03:43:44;1027.320749622609;;;4.411073749783557;40.64981342368866
46382;BME280;66809;52.974;-2.514;2023-03-01T03:45:44;1027.3062420181;;;4.424816369497912;40.708189558915954
46382;BME280;66809;52.974;-2.514;2023-03-01T03:47:44;1027.2910094616207;;;4.436420135655131;40.7541725858662
46382;BME280;66809;52.974;-2.514;2023-03-01T03:49:43;1027.2754874654993;;;4.442706259309152;40.78467189639438
46382;BME280;66809;52.974;-2.514;2023-03-01T03:51:45;1027.2612906668423;;;4.454139511687905;40.80588187998196
46382;BME280;66809;52.974;-2.514;2023-03-01T03:53:45;1027.247885612464;;;4.477455016432968;40.820802451236425
46382;BME280;66809;52.974;-2.514;2023-03-01T03:55:43;1027.2332769020934;;;4.491445342399175;40.827693441520914
46382;BME280;66809;52.974;-2.514;2023-03-01T03:57:43;1027.2185888980002;;;4.509332223692531;40.83632731971943
46382;BME280;66809;52.974;-2.514;2023-03-01T03:59:44;1027.2033194614276;;;4.525740955238207;40.829879602467805
46382;BME280;66809;52.974;-2.514;2023-03-01T04:01:43;1027.1907731968888;;;4.524330549197443;40.826030552068154
46382;BME280;66809;52.974;-2.514;2023-03-01T04:03:44;1027.1799725671399;;;4.536670634382022;40.841715971454015
46382;BME280;66809;52.974;-2.514;2023-03-01T04:05:44;1027.1674303988866;;;4.545726969765673;40.86773188632919
46382;BME280;66809;52.974;-2.514;2023-03-01T04:07:44;1027.155499206541;;;4.53851847333628;40.90620022496605
46382;BME280;66809;52.974;-2.514;2023-03-01T04:09:43;1027.1424179086687;;;4.528838184470332;40.95344948120683
46382;BME280;66809;52.974;-2.514;2023-03-01T04:11:43;1027.129718455042;;;4.513633206910542;41.00041226474387
46382;BME280;66809;52.974;-2.514;2023-03-01T04:13:43;1027.1164796636644;;;4.5090946503031555;41.037215896841595
46382;BME280;66809;52.974;-2.514;2023-03-01T04:15:43;1027.1040178879296;;;4.503934383601286;41.07749401470541
46382;BME280;66809;52.974;-2.514;2023-03-01T04:17:46;1027.090402263036;;;4.48445970926548;41.12827796708043
46382;BME280;66809;52.974;-2.514;2023-03-01T04:19:44;1027.0768474131853;;;4.464252381911392;41.18955797990241
46382;BME280;66809;52.974;-2.514;2023-03-01T04:21:43;1027.062730092299;;;4.440649086769723;41.262423599525434
46382;BME280;66809;52.974;-2.514;2023-03-01T04:23:43;1027.0494917682227;;;4.423279219222858;41.338758259095584
46382;BME280;66809;52.974;-2.514;2023-03-01T04:25:47;1027.0375392361302;;;4.387310641612689;41.41973871606134
46382;BME280;66809;52.974;-2.514;2023-03-01T04:27:43;1027.026745194995;;;4.349821372488463;41.49937447434466
46382;BME280;66809;52.974;-2.514;2023-03-01T04:29:43;1027.0177513999095;;;4.318028309154088;41.57624441495149
46382;BME280;66809;52.974;-2.514;2023-03-01T04:31:44;1027.0076658614782;;;4.2932841042013825;41.64143892023116
46382;BME280;66809;52.974;-2.514;2023-03-01T04:33:45;1026.9973679852683;;;4.286009785024424;41.6960126579875
46382;BME280;66809;52.974;-2.514;2023-03-01T04:35:44;1026.9865117879413;;;4.265928432525364;41.73588790435853
46382;BME280;66809;52.974;-2.514;2023-03-01T04:37:43;1026.9744070976585;;;4.2465948655372445;41.77205782542374
46382;BME280;66809;52.974;-2.514;2023-03-01T04:39:43;1026.9626301617525;;;4.210323925854619;41.8225506752389
46382;BME280;66809;52.974;-2.514;2023-03-01T04:41:44;1026.950900143928;;;4.172612890650849;41.88679406919136
46382;BME280;66809;52.974;-2.514;2023-03-01T04:43:44;1026.9382662372827;;;4.123806508223104;41.960365965162524
46382;BME280;66809;52.974;-2.514;2023-03-01T04:45:44;1026.925734833189;;;4.055189905752184;42.043361682631925
46382;BME280;66809;52.974;-2.514;2023-03-01T04:47:45;1026.9139221771297;;;3.9959051752802615;42.1362751551543
46382;BME280;66809;52.974;-2.514;2023-03-01T04:49:43;1026.9011043088824;;;3.9536005970156576;42.22903779115835
46382;BME280;66809;52.974;-2.514;2023-03-01T04:51:44;1026.8891602380293;;;3.9066840192865078;42.3186442421852
46382;BME280;66809;52.974;-2.514;2023-03-01T04:53:44;1026.8763025150936;;;3.8604268235598096;42.39527336167091
46382;BME280;66809;52.974;-2.514;2023-03-01T04:55:43;1026.8643683270823;;;3.812710783748978;42.47334593512332
46382;BME280;66809;52.974;-2.514;2023-03-01T04:57:43;1026.8514725736904;;;3.7683048844323346;42.54323299625857
46382;BME280;66809;52.974;-2.514;2023-03-01T04:59:43;1026.8392733841572;;;3.7221077282769977;42.61802645121135
46382;BME280;66809;52.974;-2.514;2023-03-01T05:01:44;1026.8281585903387;;;3.6757792417065143;42.701966476455134
46382;BME280;66809;52.974;-2.514;2023-03-01T05:03:45;1026.8171398820111;;;3.6216282289930883;42.775252314723545
46382;BME280;66809;52.974;-2.514;2023-03-01T05:05:46;1026.8068213625888;;;3.5771725808385915;42.84042385247955
46382;BME280;66809;52.974;-2.514;2023-03-01T05:07:43;1026.7960961706713;;;3.5542609083115337;42.8866787215225
46382;BME280;66809;52.974;-2.514;2023-03-01T05:09:43;1026.7848266440133;;;3.5424643678230563;42.927092378933686
46382;BME280;66809;52.974;-2.514;2023-03-01T05:11:44;1026.7743771222997;;;3.5339652743803804;42.95018011103444
46382;BME280;66809;52.974;-2.514;2023-03-01T05:13:43;1026.7643688992362;;;3.5273683748484035;42.96192243927682
46382;BME280;66809;52.974;-2.514;2023-03-01T05:15:43;1026.7540595836228;;;3.5287931541086173;42.95348900718126
46382;BME280;66809;52.974;-2.514;2023-03-01T05:17:44;1026.745168626623;;;3.5350673239919783;42.93687983376525
46382;BME280;66809;52.974;-2.514;2023-03-01T05:19:43;1026.737797084738;;;3.545386080330316;42.90129193236587
46382;BME280;66809;52.974;-2.514;2023-03-01T05:21:43;1026.7306871182861;;;3.5486241182142892;42.85690790952836
46382;BME280;66809;52.974;-2.514;2023-03-01T05:23:43;1026.7245778598967;;;3.5617052186207476;42.816297681814675
46382;BME280;66809;52.974;-2.514;2023-03-01T05:25:44;1026.7206459207837;;;3.580734577538024;42.774929768900854
46382;BME280;66809;52.974;-2.514;2023-03-01T05:27:44;1026.716033512997;;;3.598024832650395;42.731327877501826
46382;BME280;66809;52.974;-2.514;2023-03-01T05:29:43;1026.7114284467475;;;3.6040234912112776;42.70729736622736
46382;BME280;66809;52.974;-2.514;2023-03-01T05:31:43;1026.7084111303298;;;3.6114150615941765;42.68894966980411
46382;BME280;66809;52.974;-2.514;2023-03-01T05:33:43;1026.7065005272189;;;3.5971444133545694;42.686904125709376
46382;BME280;66809;52.974;-2.514;2023-03-01T05:35:44;1026.706123115711;;;3.6037361046144176;42.69694125077832
46382;BME280;66809;52.974;-2.514;2023-03-01T05:37:45;1026.7050402314042;;;3.60519969132428;42.69822002664517
46382;BME280;66809;52.974;-2.514;2023-03-01T05:39:44;1026.702903749161;;;3.612028353053966;42.69755351548455
46382;BME280;66809;52.974;-2.514;2023-03-01T05:41:43;1026.7014579683093;;;3.612734074837427;42.69273357872791
46382;BME280;66809;52.974;-2.514;2023-03-01T05:43:43;1026.7011552624504;;;3.6135574146166234;42.689362864718255
46382;BME280;66809;52.974;-2.514;2023-03-01T05:45:44;1026.7014957948638;;;3.6258217869042455;42.67358899668257
46382;BME280;66809;52.974;-2.514;2023-03-01T05:47:45;1026.702585600829;;;3.6367184222771396;42.64568659246913
46382;BME280;66809;52.974;-2.514;2023-03-01T05:49:43;1026.7037266727343;;;3.6313741831148927;42.619703662880084
46382;BME280;66809;52.974;-2.514;2023-03-01T05:51:48;1026.7020495517122;;;3.6282979436601397;42.59010844129284
46382;BME280;66809;52.974;-2.514;2023-03-01T05:53:43;1026.7014195396791;;;3.6204594101836736;42.57666439256338
46382;BME280;66809;52.974;-2.514;2023-03-01T05:55:44;1026.700736557069;;;3.6085784760470356;42.56168531836498
46382;BME280;66809;52.974;-2.514;2023-03-01T05:57:43;1026.7023266686992;;;3.594731600660123;42.55142249064219
46382;BME280;66809;52.974;-2.514;2023-03-01T05:59:45;1026.704614240762;;;3.5876172939816433;42.52980186584387
46382;BME280;66809;52.974;-2.514;2023-03-01T06:01:44;1026.704473569964;;;3.604503775537854;42.49490859342696
46382;BME280;66809;52.974;-2.514;2023-03-01T06:03:43;1026.7016723985098;;;3.6143515640147057;42.45190520520584
46382;BME280;66809;52.974;-2.514;2023-03-01T06:05:43;1026.6977941839966;;;3.6158134117658194;42.40156222040574
46382;BME280;66809;52.974;-2.514;2023-03-01T06:07:43;1026.693907519714;;;3.616006644564663;42.35227184843948
46382;BME280;66809;52.974;-2.514;2023-03-01T06:09:44;1026.688615364182;;;3.5988903022347865;42.30487781112312
46382;BME280;66809;52.974;-2.514;2023-03-01T06:11:43;1026.6821138739485;;;3.5903641380352496;42.256280202686575
46382;BME280;66809;52.974;-2.514;2023-03-01T06:13:43;1026.6785912293758;;;3.5644805905721473;42.221426558716644
46382;BME280;66809;52.974;-2.514;2023-03-01T06:15:43;1026.6757654068615;;;3.5366563013433714;42.209252972598016
46382;BME280;66809;52.974;-2.514;2023-03-01T06:17:44;1026.6725232850247;;;3.506762206305404;42.191480469135264
46382;BME280;66809;52.974;-2.514;2023-03-01T06:19:43;1026.6687382482564;;;3.4726085419293002;42.171677481001964
46382;BME280;66809;52.974;-2.514;2023-03-01T06:21:43;1026.6660252385082;;;3.4500652835863987;42.157675407657855
46382;BME280;66809;52.974;-2.514;2023-03-01T06:23:44;1026.6629254148288;;;3.4156693348421396;42.139305388575245
46382;BME280;66809;52.974;-2.514;2023-03-01T06:25:43;1026.6590631959937;;;3.3698067391620654;42.14249107736503
46382;BME280;66809;52.974;-2.514;2023-03-01T06:27:44;1026.6571009901215;;;3.324969116128805;42.14897042168135
46382;BME280;66809;52.974;-2.514;2023-03-01T06:29:44;1026.6563432384912;;;3.288514478190125;42.14916283435179
46382;BME280;66809;52.974;-2.514;2023-03-01T06:31:43;1026.6557199536112;;;3.237458552468466;42.16196755975561
46382;BME280;66809;52.974;-2.514;2023-03-01T06:33:45;1026.6549171482425;;;3.1934346529722517;42.177863091167666
46382;BME280;66809;52.974;-2.514;2023-03-01T06:35:43;1026.6534513244783;;;3.1503211283122305;42.20232227463235
46382;BME280;66809;52.974;-2.514;2023-03-01T06:37:44;1026.654784573181;;;3.113278451970092;42.24525585818594
46382;BME280;66809;52.974;-2.514;2023-03-01T06:39:43;1026.65766686326;;;3.085435779784105;42.27543236020223
46382;BME280;66809;52.974;-2.514;2023-03-01T06:41:44;1026.6601614948056;;;3.0739284919314978;42.29112185738475
46382;BME280;66809;52.974;-2.514;2023-03-01T06:43:43;1026.6631327309763;;;3.0605211748604133;42.31269982387402
46382;BME280;66809;52.974;-2.514;2023-03-01T06:45:43;1026.665967835441;;;3.0436511411136338;42.33921285750888
46382;BME280;66809;52.974;-2.514;2023-03-01T06:47:44;1026.6691806309004;;;3.028714768505036;42.38468597943102
46382;BME280;66809;52.974;-2.514;2023-03-01T06:49:43;1026.6736507296196;;;3.021220329084414;42.432887828196
46382;BME280;66809;52.974;-2.514;2023-03-01T06:51:44;1026.6811467460027;;;3.0274484196283873;42.477702083273826
46382;BME280;66809;52.974;-2.514;2023-03-01T06:53:45;1026.6902703063267;;;3.0396906151611103;42.51621765164372
46382;BME280;66809;52.974;-2.514;2023-03-01T06:55:43;1026.6990047141826;;;3.050269734313972;42.54581172669118
46382;BME280;66809;52.974;-2.514;2023-03-01T06:57:44;1026.7057072536384;;;3.0706113656037943;42.563104030128265
46382;BME280;66809;52.974;-2.514;2023-03-01T06:59:43;1026.7127200296031;;;3.1054438315341995;42.57589167356647
46382;BME280;66809;52.974;-2.514;2023-03-01T07:01:43;1026.7211636948912;;;3.1152761580119606;42.5743727144035
46382;BME280;66809;52.974;-2.514;2023-03-01T07:03:44;1026.7307134372904;;;3.1448851171141703;42.57539084085372
46382;BME280;66809;52.974;-2.514;2023-03-01T07:05:43;1026.7410558613049;;;3.183822738733592;42.57043007167201
46382;BME280;66809;52.974;-2.514;2023-03-01T07:07:43;1026.7511405670862;;;3.2049471464529966;42.5604492167507
46382;BME280;66809;52.974;-2.514;2023-03-01T07:09:44;1026.7629774426935;;;3.244583868979492;42.545343528677904
46382;BME280;66809;52.974;-2.514;2023-03-01T07:11:43;1026.7752694683145;;;3.2691361378916515;42.542875870787626